createdAt,value
2022-12-03T07:16:02.315Z,11.88
2022-12-03T07:18:28.936Z,12.35
2022-12-03T07:21:02.775Z,13.07
2022-12-03T07:23:29.397Z,12.32
2022-12-03T07:25:56.030Z,14.45
2022-12-03T07:28:22.668Z,14.00
2022-12-03T07:30:51.519Z,13.68
2022-12-03T07:33:20.076Z,13.20
2022-12-03T07:35:57.627Z,14.45
2022-12-03T07:38:27.381Z,13.85
2022-12-03T07:40:53.970Z,13.95
2022-12-03T07:43:20.591Z,15.05
2022-12-03T07:45:47.232Z,14.27
2022-12-03T07:48:13.876Z,14.13
2022-12-03T07:50:40.514Z,13.88
2022-12-03T07:53:07.115Z,15.18
2022-12-03T07:55:33.718Z,14.15
2022-12-03T07:58:00.338Z,13.10
2022-12-03T08:00:27.048Z,14.70
2022-12-03T08:02:53.667Z,14.20
2022-12-03T08:05:20.292Z,14.27
2022-12-03T08:07:46.967Z,15.15
2022-12-03T08:10:13.643Z,14.48
2022-12-03T08:12:40.498Z,14.23
2022-12-03T08:15:17.966Z,13.50
2022-12-03T08:17:46.722Z,12.57
2022-12-03T08:20:19.806Z,13.90
2022-12-03T08:22:48.896Z,13.27
2022-12-03T08:25:28.762Z,13.27
2022-12-03T08:28:02.445Z,12.93
2022-12-03T08:30:29.168Z,13.75
2022-12-03T08:32:58.448Z,13.77
2022-12-03T08:35:30.145Z,12.55
2022-12-03T08:38:09.350Z,11.98
2022-12-03T08:40:40.722Z,13.38
2022-12-03T08:43:18.249Z,14.30
2022-12-03T08:45:45.203Z,12.35
2022-12-03T08:48:42.822Z,13.27
2022-12-03T08:51:24.358Z,13.02
2022-12-03T08:54:01.718Z,13.52
2022-12-03T08:56:36.474Z,12.38
2022-12-03T08:59:25.322Z,13.70
2022-12-03T09:01:53.482Z,13.52
2022-12-03T09:04:27.422Z,13.45
2022-12-03T09:06:55.160Z,13.23
2022-12-03T09:09:22.871Z,13.65
2022-12-03T09:11:53.125Z,13.45
2022-12-03T09:14:22.448Z,13.52
2022-12-03T09:16:51.930Z,12.60
2022-12-03T09:19:24.876Z,13.98
2022-12-03T09:21:54.435Z,12.55
2022-12-03T09:24:21.190Z,13.88
2022-12-03T09:26:52.486Z,14.05
2022-12-03T09:29:19.154Z,14.13
2022-12-03T09:31:47.173Z,14.55
2022-12-03T09:34:13.895Z,13.05
2022-12-03T09:36:42.975Z,12.70
2022-12-03T09:39:09.602Z,12.45
2022-12-03T09:41:46.099Z,12.95
2022-12-03T09:44:17.439Z,11.90
2022-12-03T09:46:45.935Z,12.35
2022-12-03T09:49:17.560Z,12.43
2022-12-03T09:51:44.971Z,11.38
2022-12-03T09:54:22.037Z,12.20
2022-12-03T09:56:52.851Z,12.57
2022-12-03T09:59:20.577Z,12.52
2022-12-03T10:01:47.699Z,12.25
2022-12-03T10:04:14.602Z,11.40
2022-12-03T10:06:45.814Z,13.10
2022-12-03T10:09:23.616Z,11.80
2022-12-03T10:11:50.279Z,11.35
2022-12-03T10:14:18.811Z,13.15
2022-12-03T10:16:46.102Z,14.30
2022-12-03T10:19:31.443Z,11.88
2022-12-03T10:21:58.207Z,13.40
2022-12-03T10:24:33.212Z,13.00
2022-12-03T10:27:02.311Z,12.38
2022-12-03T10:29:34.373Z,11.98
2022-12-03T10:32:07.412Z,12.98
2022-12-03T10:34:39.591Z,12.65
2022-12-03T10:37:19.374Z,11.95
2022-12-03T10:40:11.880Z,12.35
2022-12-03T10:42:40.758Z,11.55
2022-12-03T10:45:29.725Z,12.65
2022-12-03T10:48:14.193Z,12.13
2022-12-03T10:50:48.309Z,12.82
2022-12-03T10:53:15.252Z,11.18
2022-12-03T10:55:43.700Z,11.77
2022-12-03T10:58:23.374Z,12.00
2022-12-03T11:00:53.316Z,13.00
2022-12-03T11:03:25.941Z,12.27
2022-12-03T11:05:54.603Z,11.52
2022-12-03T11:08:24.430Z,12.38
2022-12-03T11:11:00.810Z,13.75
2022-12-03T11:13:33.395Z,13.73
2022-12-03T11:16:04.244Z,12.30
2022-12-03T11:18:37.018Z,12.00
2022-12-03T11:21:06.599Z,13.15
2022-12-03T11:23:45.115Z,13.13
2022-12-03T11:26:18.593Z,14.00
2022-12-03T11:28:45.974Z,12.68
2022-12-03T11:31:44.529Z,13.20
2022-12-03T11:34:20.307Z,13.68
2022-12-03T11:37:11.861Z,13.02
2022-12-03T11:39:50.997Z,11.85
2022-12-03T11:42:26.455Z,13.52
2022-12-03T11:45:05.205Z,13.35
2022-12-03T11:47:31.794Z,12.45
2022-12-03T11:49:58.793Z,13.65
2022-12-03T11:52:33.163Z,13.90
2022-12-03T11:55:13.823Z,13.30
2022-12-03T11:57:42.963Z,13.30
2022-12-03T12:00:17.644Z,13.82
2022-12-03T12:02:44.582Z,12.73
2022-12-03T12:05:19.056Z,13.55
2022-12-03T12:07:47.984Z,12.60
2022-12-03T12:10:40.527Z,11.65
2022-12-03T12:13:24.645Z,14.90
2022-12-03T12:15:51.583Z,13.30
2022-12-03T12:18:40.148Z,12.88
2022-12-03T12:21:41.946Z,12.93
2022-12-03T12:24:28.926Z,12.63
2022-12-03T12:26:56.635Z,13.13
2022-12-03T12:29:23.212Z,12.68
2022-12-03T12:31:53.948Z,13.27
2022-12-03T12:34:20.950Z,14.13
2022-12-03T12:36:47.544Z,12.90
2022-12-03T12:39:16.120Z,13.93
2022-12-03T12:41:47.497Z,13.65
2022-12-03T12:44:14.342Z,15.27
2022-12-03T12:46:48.472Z,14.23
2022-12-03T12:49:15.807Z,14.13
2022-12-03T12:51:47.244Z,15.13
2022-12-03T12:54:16.065Z,15.07
2022-12-03T12:56:49.840Z,15.10
2022-12-03T12:59:20.603Z,16.25
2022-12-03T13:01:49.176Z,15.02
2022-12-03T13:04:22.168Z,15.73
2022-12-03T13:06:55.345Z,16.77
2022-12-03T13:09:24.954Z,15.57
2022-12-03T13:11:55.582Z,17.10
2022-12-03T13:14:24.463Z,16.83
2022-12-03T13:16:52.726Z,18.20
2022-12-03T13:19:25.384Z,17.02
2022-12-03T13:21:54.912Z,16.75
2022-12-03T13:24:37.768Z,16.25
2022-12-03T13:27:21.663Z,16.65
2022-12-03T13:30:01.388Z,15.63
2022-12-03T13:32:33.652Z,15.77
2022-12-03T13:37:33.945Z,15.20
2022-12-03T13:40:17.219Z,15.85
2022-12-03T13:42:46.524Z,16.52
2022-12-03T13:45:15.212Z,17.40
2022-12-03T13:47:56.375Z,17.15
2022-12-03T13:50:35.823Z,15.82
2022-12-03T13:53:09.320Z,16.83
2022-12-03T13:55:39.448Z,15.75
2022-12-03T13:58:06.111Z,15.73
2022-12-03T14:00:32.708Z,14.90
2022-12-03T14:02:59.312Z,16.27
2022-12-03T14:05:25.952Z,15.93
2022-12-03T14:07:52.624Z,16.77
2022-12-03T14:10:19.248Z,16.85
2022-12-03T14:12:45.887Z,16.58
2022-12-03T14:15:12.520Z,16.88
2022-12-03T14:17:39.175Z,17.25
2022-12-03T14:20:06.610Z,17.00
2022-12-03T14:22:33.469Z,17.90
2022-12-03T14:25:00.042Z,17.60
2022-12-03T14:27:27.388Z,17.00
2022-12-03T14:29:54.412Z,16.75
2022-12-03T14:32:21.337Z,17.95
2022-12-03T14:34:48.363Z,17.85
2022-12-03T14:37:17.920Z,17.90
2022-12-03T14:39:44.553Z,17.77
2022-12-03T14:42:13.940Z,16.83
2022-12-03T14:44:47.656Z,18.92
2022-12-03T14:47:16.041Z,18.40
2022-12-03T14:49:42.710Z,18.17
2022-12-03T14:52:12.290Z,17.98
2022-12-03T14:54:42.332Z,18.38
2022-12-03T14:57:13.169Z,19.58
2022-12-03T14:59:43.941Z,17.10
2022-12-03T15:02:12.160Z,18.52
2022-12-03T15:04:39.884Z,18.63
2022-12-03T15:07:06.654Z,18.63
2022-12-03T15:09:33.399Z,19.88
2022-12-03T15:12:00.074Z,19.38
2022-12-03T15:14:27.152Z,20.20
2022-12-03T15:16:55.991Z,22.60
2022-12-03T15:19:22.740Z,24.02
2022-12-03T15:21:49.332Z,20.48
2022-12-03T15:24:15.996Z,20.20
2022-12-03T15:26:42.567Z,18.77
2022-12-03T15:29:09.196Z,19.42
2022-12-03T15:31:35.824Z,18.80
2022-12-03T15:34:06.224Z,18.45
2022-12-03T15:36:32.875Z,19.20
2022-12-03T15:38:59.479Z,18.90
2022-12-03T15:41:29.486Z,19.05
2022-12-03T15:43:58.329Z,18.80
2022-12-03T15:46:25.982Z,19.08
2022-12-03T15:48:53.001Z,18.42
2022-12-03T15:51:19.795Z,18.55
2022-12-03T15:53:46.433Z,20.35
2022-12-03T15:56:13.301Z,19.42
2022-12-03T15:58:42.926Z,18.58
2022-12-03T16:01:09.780Z,20.83
2022-12-03T16:03:36.670Z,20.80
2022-12-03T16:06:03.409Z,20.17
2022-12-03T16:08:31.205Z,19.35
2022-12-03T16:10:57.868Z,19.88
2022-12-03T16:13:24.653Z,19.25
2022-12-03T16:15:51.379Z,18.55
2022-12-03T16:18:18.031Z,19.65
2022-12-03T16:20:44.722Z,20.38
2022-12-03T16:23:11.419Z,19.30
2022-12-03T16:25:38.035Z,19.85
2022-12-03T16:28:06.107Z,19.77
2022-12-03T16:30:32.724Z,18.77
2022-12-03T16:32:59.374Z,20.17
2022-12-03T16:35:25.984Z,19.50
2022-12-03T16:37:52.595Z,19.73
2022-12-03T16:40:19.191Z,19.20
2022-12-03T16:42:45.851Z,20.00
2022-12-03T16:45:31.966Z,19.08
2022-12-03T16:47:59.028Z,19.75
2022-12-03T16:50:30.025Z,19.40
2022-12-03T16:52:57.593Z,14.38
2022-12-03T16:55:24.461Z,19.75
2022-12-03T16:57:51.071Z,20.58
2022-12-03T17:00:17.951Z,18.40
2022-12-03T17:02:44.684Z,20.15
2022-12-03T17:05:11.451Z,20.13
2022-12-03T17:07:38.223Z,20.60
2022-12-03T17:10:06.045Z,18.80
2022-12-03T17:12:48.269Z,18.35
2022-12-03T17:15:19.261Z,18.27
2022-12-03T17:17:46.045Z,19.73
2022-12-03T17:20:16.125Z,19.40
2022-12-03T17:22:45.243Z,20.17
2022-12-03T17:25:12.210Z,19.73
2022-12-03T17:27:44.824Z,18.67
2022-12-03T17:30:15.489Z,18.85
2022-12-03T17:32:42.228Z,20.55
2022-12-03T17:35:11.846Z,19.52
2022-12-03T17:37:39.611Z,20.38
2022-12-03T17:40:08.391Z,20.27
2022-12-03T17:42:34.986Z,20.90
2022-12-03T17:45:09.336Z,18.95
2022-12-03T17:47:38.096Z,19.17
2022-12-03T17:50:05.586Z,18.98
2022-12-03T17:52:36.444Z,19.73
2022-12-03T17:55:15.783Z,19.38
2022-12-03T17:57:48.144Z,17.73
2022-12-03T18:00:17.663Z,18.50
2022-12-03T18:02:44.269Z,18.23
2022-12-03T18:05:10.964Z,17.55
2022-12-03T18:07:37.664Z,17.55
2022-12-03T18:10:04.904Z,18.02
2022-12-03T18:12:31.567Z,18.00
2022-12-03T18:14:58.209Z,17.23
2022-12-03T18:17:24.813Z,18.73
2022-12-03T18:19:51.622Z,16.42
2022-12-03T18:22:20.896Z,18.10
2022-12-03T18:24:52.257Z,18.88
2022-12-03T18:27:20.329Z,17.23
2022-12-03T18:29:49.708Z,18.23
2022-12-03T18:32:28.308Z,18.58
2022-12-03T18:34:58.797Z,18.15
2022-12-03T18:37:31.222Z,19.23
2022-12-03T18:40:12.445Z,17.80
2022-12-03T18:42:40.444Z,19.05
2022-12-03T18:45:12.633Z,17.63
2022-12-03T18:47:39.338Z,18.35
2022-12-03T18:50:09.458Z,17.80
2022-12-03T18:52:36.342Z,16.95
2022-12-03T18:55:05.852Z,16.85
2022-12-03T18:57:32.473Z,19.13
2022-12-03T19:00:01.733Z,19.08
2022-12-03T19:05:17.711Z,17.73
2022-12-03T19:07:46.715Z,17.77
2022-12-03T19:10:15.987Z,17.45
2022-12-03T19:12:42.651Z,16.88
2022-12-03T19:15:14.984Z,17.25
2022-12-03T19:17:49.132Z,16.73
2022-12-03T19:20:15.733Z,16.98
2022-12-03T19:22:42.380Z,16.63
2022-12-03T19:25:09.192Z,16.00
2022-12-03T19:27:35.790Z,16.98
2022-12-03T19:30:05.246Z,18.42
2022-12-03T19:32:31.924Z,16.73
2022-12-03T19:34:58.798Z,18.92
2022-12-03T19:37:26.332Z,18.80
2022-12-03T19:39:55.386Z,17.98
2022-12-03T19:42:24.924Z,17.77
2022-12-03T19:44:51.585Z,19.15
2022-12-03T19:47:21.043Z,17.75
2022-12-03T19:49:50.049Z,18.52
2022-12-03T19:52:16.678Z,17.50
2022-12-03T19:54:43.399Z,18.85
2022-12-03T19:57:10.574Z,18.40
2022-12-03T19:59:42.449Z,18.25
2022-12-03T20:02:12.227Z,20.00
2022-12-03T20:04:38.942Z,18.30
2022-12-03T20:07:08.274Z,18.83
2022-12-03T20:09:34.922Z,18.77
2022-12-03T20:12:04.263Z,18.55
2022-12-03T20:14:30.971Z,18.10
2022-12-03T20:17:03.311Z,20.17
2022-12-03T20:19:33.379Z,17.85
2022-12-03T20:22:03.916Z,19.00
2022-12-03T20:24:32.742Z,18.52
2022-12-03T20:27:00.959Z,17.65
2022-12-03T20:29:30.879Z,16.90
2022-12-03T20:32:00.430Z,17.85
2022-12-03T20:34:27.152Z,17.52
2022-12-03T20:36:57.894Z,16.25
2022-12-03T20:39:27.058Z,17.90
2022-12-03T20:41:55.932Z,16.90
2022-12-03T20:44:24.517Z,17.30
2022-12-03T20:46:51.194Z,17.50
2022-12-03T20:49:17.907Z,15.50
2022-12-03T20:51:49.899Z,16.90
2022-12-03T20:54:16.543Z,15.98
2022-12-03T20:56:43.194Z,16.42
2022-12-03T20:59:15.728Z,15.70
2022-12-03T21:01:47.347Z,18.35
2022-12-03T21:04:14.368Z,16.77
2022-12-03T21:06:42.271Z,16.35
2022-12-03T21:09:12.436Z,15.50
2022-12-03T21:11:42.190Z,15.93
2022-12-03T21:14:12.625Z,15.32
2022-12-03T21:19:38.872Z,16.45
2022-12-03T21:22:07.494Z,15.77
2022-12-03T21:24:34.579Z,16.23
2022-12-03T21:27:02.279Z,16.98
2022-12-03T21:29:31.449Z,15.68
2022-12-03T21:32:00.580Z,17.55
2022-12-03T21:34:35.867Z,14.90
2022-12-03T21:37:07.210Z,16.15
2022-12-03T21:39:33.935Z,16.20
2022-12-03T21:42:18.836Z,19.95
2022-12-03T21:44:50.851Z,19.02
2022-12-03T21:47:17.536Z,18.73
2022-12-03T21:49:46.744Z,17.25
2022-12-03T21:52:13.430Z,16.77
2022-12-03T21:54:40.132Z,16.23
2022-12-03T21:57:06.766Z,17.80
2022-12-03T21:59:33.494Z,16.33
2022-12-03T22:02:02.611Z,15.73
2022-12-03T22:04:29.464Z,15.23
2022-12-03T22:06:56.125Z,15.80
2022-12-03T22:09:28.190Z,16.08
2022-12-03T22:11:56.746Z,17.10
2022-12-03T22:14:23.418Z,16.27
2022-12-03T22:16:52.510Z,15.95
2022-12-03T22:19:25.496Z,15.65
2022-12-03T22:21:52.559Z,16.45
2022-12-03T22:24:19.514Z,15.43
2022-12-03T22:26:47.401Z,15.30
2022-12-03T22:29:23.237Z,15.90
2022-12-03T22:31:52.207Z,15.18
2022-12-03T22:34:18.904Z,15.23
2022-12-03T22:36:45.494Z,17.25
2022-12-03T22:39:14.065Z,16.15
2022-12-03T22:41:48.178Z,15.05
2022-12-03T22:44:17.509Z,15.55
2022-12-03T22:46:45.389Z,15.52
2022-12-03T22:49:13.385Z,16.05
2022-12-03T22:51:40.041Z,17.17
2022-12-03T22:54:10.599Z,15.63
2022-12-03T22:56:38.901Z,15.45
2022-12-03T22:59:09.212Z,16.88
2022-12-03T23:01:42.967Z,15.65
2022-12-03T23:04:12.776Z,17.13
2022-12-03T23:06:42.732Z,15.02
2022-12-03T23:09:11.853Z,16.95
2022-12-03T23:11:41.047Z,18.10
2022-12-03T23:14:07.658Z,17.20
2022-12-03T23:16:39.912Z,15.63
2022-12-03T23:21:35.128Z,14.45
2022-12-03T23:24:04.295Z,15.68
2022-12-03T23:26:37.657Z,18.15
2022-12-03T23:29:08.299Z,16.15
2022-12-03T23:31:35.226Z,16.13
2022-12-03T23:34:02.511Z,16.83
2022-12-03T23:36:36.812Z,17.30
2022-12-03T23:39:06.931Z,16.35
2022-12-03T23:41:33.601Z,16.67
2022-12-03T23:44:00.219Z,17.45
2022-12-03T23:46:29.663Z,16.20
2022-12-03T23:48:59.616Z,16.85
2022-12-03T23:51:27.094Z,17.92
2022-12-03T23:53:56.643Z,16.65
2022-12-03T23:56:34.893Z,18.10
2022-12-03T23:59:03.530Z,16.73
